Time;durP1;ratioP1;P1;durP2;ratioP2;P2;SDS_P1;SDS_P2;PMS_P1;PMS_P2;Temp;Humidity;BMP_temperature;BMP_pressure;BME280_temperature;BME280_humidity;BME280_pressure;Samples;Min_cycle;Max_cycle;Signal;HPM_P1;HPM_P2
2023/04/22 00:02:13;;;;;;;;;;;;;;;11.95;100.00;99652.75;5047052;28;19921;-79
2023/04/22 00:04:40;;;;;;;;;;;;;;;11.98;100.00;99662.19;5042226;28;19925;-80
2023/04/22 00:07:05;;;;;;;;;;;;;;;11.97;100.00;99653.41;5042209;28;20019;-80
2023/04/22 00:09:31;;;;;;;;;;;;;;;11.90;100.00;99653.16;5022603;28;19971;-81
2023/04/22 00:11:57;;;;;;;;;;;;;;;11.94;100.00;99650.25;5042442;28;19921;-81
2023/04/22 00:14:23;;;;;;;;;;;;;;;11.93;100.00;99646.75;5039780;28;19925;-81
2023/04/22 00:16:49;;;;;;;;;;;;;;;11.94;100.00;99651.06;5042712;28;19960;-80
2023/04/22 00:19:15;;;;;;;;;;;;;;;11.94;100.00;99645.78;5039577;28;19932;-80
2023/04/22 00:21:40;;;;;;;;;;;;;;;11.95;100.00;99647.47;5042205;28;19954;-79
2023/04/22 00:24:06;;;;;;;;;;;;;;;11.95;100.00;99641.34;5040706;28;20415;-79
2023/04/22 00:26:31;;;;;;;;;;;;;;;11.91;100.00;99643.44;5048330;28;19959;-80
2023/04/22 00:28:56;;;;;;;;;;;;;;;11.79;100.00;99637.50;5042078;28;19921;-80
2023/04/22 00:31:22;;;;;;;;;;;;;;;11.82;100.00;99637.22;5039025;28;19920;-83
2023/04/22 00:33:47;;;;;;;;;;;;;;;11.84;100.00;99640.53;5039371;28;20015;-83
2023/04/22 00:36:13;;;;;;;;;;;;;;;11.83;100.00;99638.91;5042506;28;20442;-82
2023/04/22 00:38:38;;;;;;;;;;;;;;;11.80;100.00;99639.19;5040026;28;19929;-83
2023/04/22 00:41:03;;;;;;;;;;;;;;;11.79;100.00;99632.22;5040585;28;19928;-83
2023/04/22 00:43:29;;;;;;;;;;;;;;;11.70;100.00;99633.09;5041160;28;19932;-83
2023/04/22 00:45:56;;;;;;;;;;;;;;;11.70;100.00;99633.09;5039820;28;19936;-82
2023/04/22 00:48:23;;;;;;;;;;;;;;;11.68;100.00;99635.03;5041866;28;19975;-83
2023/04/22 00:50:48;;;;;;;;;;;;;;;11.58;100.00;99626.34;5021300;28;20296;-82
2023/04/22 00:53:14;;;;;;;;;;;;;;;11.54;100.00;99637.38;5008282;28;19921;-83
2023/04/22 00:55:40;;;;;;;;;;;;;;;11.49;100.00;99630.69;5048474;28;19924;-82
2023/04/22 00:58:05;;;;;;;;;;;;;;;11.46;100.00;99619.59;5048908;28;19928;-81
2023/04/22 01:00:31;;;;;;;;;;;;;;;11.44;100.00;99621.53;5054280;28;20397;-81
2023/04/22 01:02:56;;;;;;;;;;;;;;;11.45;100.00;99618.75;5058812;28;20392;-83
2023/04/22 01:05:22;;;;;;;;;;;;;;;11.45;100.00;99618.75;5057689;28;19971;-82
2023/04/22 01:07:48;;;;;;;;;;;;;;;11.43;100.00;99617.22;5062579;28;19920;-81
2023/04/22 01:10:13;;;;;;;;;;;;;;;11.42;100.00;99618.22;5059079;28;19967;-81
2023/04/22 01:12:38;;;;;;;;;;;;;;;11.40;100.00;99614.91;5060927;28;19920;-80
2023/04/22 01:15:04;;;;;;;;;;;;;;;11.37;100.00;99625.75;5061118;28;19920;-82
2023/04/22 01:17:30;;;;;;;;;;;;;;;11.31;100.00;99615.78;5060321;28;19946;-82
2023/04/22 01:19:57;;;;;;;;;;;;;;;11.23;100.00;99619.16;5058084;28;20001;-81
2023/04/22 01:22:24;;;;;;;;;;;;;;;11.24;100.00;99609.41;5056350;28;19928;-82
2023/04/22 01:24:50;;;;;;;;;;;;;;;11.21;100.00;99614.97;5058873;28;19921;-81
2023/04/22 01:27:15;;;;;;;;;;;;;;;11.17;100.00;99608.31;5066774;28;20384;-81
2023/04/22 01:29:41;;;;;;;;;;;;;;;11.14;100.00;99616.53;5063626;28;19928;-82
2023/04/22 01:32:06;;;;;;;;;;;;;;;11.05;100.00;99621.72;5064343;28;19920;-82
2023/04/22 01:34:32;;;;;;;;;;;;;;;10.94;100.00;99613.97;5063625;28;19927;-84
2023/04/22 01:36:58;;;;;;;;;;;;;;;10.91;100.00;99614.25;5063652;28;19920;-82
2023/04/22 01:39:23;;;;;;;;;;;;;;;10.81;100.00;99612.59;5044504;28;20011;-81
2023/04/22 01:41:50;;;;;;;;;;;;;;;10.72;100.00;99613.47;5047930;28;19921;-82
2023/04/22 01:44:15;;;;;;;;;;;;;;;10.49;100.00;99621.69;5061127;28;20458;-80
2023/04/22 01:46:40;;;;;;;;;;;;;;;10.46;100.00;99618.50;5064782;28;19928;-80
2023/04/22 01:49:06;;;;;;;;;;;;;;;10.52;100.00;99613.50;5061952;28;19924;-78
2023/04/22 01:51:31;;;;;;;;;;;;;;;10.60;100.00;99615.44;5062808;28;19921;-80
2023/04/22 01:53:56;;;;;;;;;;;;;;;10.65;100.00;99614.03;5064492;28;19973;-77
2023/04/22 01:56:22;;;;;;;;;;;;;;;10.73;100.00;99615.94;5056890;28;20357;-79
2023/04/22 01:58:48;;;;;;;;;;;;;;;10.77;100.00;99616.50;5047525;28;19946;-82
2023/04/22 02:01:14;;;;;;;;;;;;;;;10.79;100.00;99620.66;5062258;28;20385;-80
2023/04/22 02:03:40;;;;;;;;;;;;;;;10.84;100.00;99621.06;5046127;28;20024;-79
2023/04/22 02:06:06;;;;;;;;;;;;;;;10.85;100.00;99625.38;5061285;28;19924;-80
2023/04/22 02:08:32;;;;;;;;;;;;;;;10.86;100.00;99619.13;5053027;28;20294;-80
2023/04/22 02:10:59;;;;;;;;;;;;;;;10.73;100.00;99618.59;5063961;28;19920;-79
2023/04/22 02:13:24;;;;;;;;;;;;;;;10.73;100.00;99612.47;5062493;28;19928;-79
2023/04/22 02:15:49;;;;;;;;;;;;;;;10.65;100.00;99610.56;5063956;28;19920;-82
2023/04/22 02:18:16;;;;;;;;;;;;;;;10.43;100.00;99613.50;5061804;28;19924;-81
2023/04/22 02:20:42;;;;;;;;;;;;;;;10.43;100.00;99613.50;5046075;28;19950;-80
2023/04/22 02:23:07;;;;;;;;;;;;;;;10.35;100.00;99611.56;5062360;28;20427;-78
2023/04/22 02:25:32;;;;;;;;;;;;;;;10.29;100.00;99616.56;5060948;28;20241;-80
2023/04/22 02:27:58;;;;;;;;;;;;;;;10.10;100.00;99618.19;5045889;28;19920;-79
2023/04/22 02:30:23;;;;;;;;;;;;;;;10.04;100.00;99608.19;5057034;28;19944;-79
2023/04/22 02:32:49;;;;;;;;;;;;;;;10.10;100.00;99612.94;5063489;28;19959;-79
2023/04/22 02:35:14;;;;;;;;;;;;;;;10.19;100.00;99617.38;5061507;28;20284;-79
2023/04/22 02:37:40;;;;;;;;;;;;;;;10.26;100.00;99615.88;5061344;28;19924;-81
2023/04/22 02:40:06;;;;;;;;;;;;;;;10.25;100.00;99627.38;5044719;28;19925;-80
2023/04/22 02:42:32;;;;;;;;;;;;;;;10.28;100.00;99623.66;5059033;28;19921;-81
2023/04/22 02:44:57;;;;;;;;;;;;;;;10.35;100.00;99621.28;5064035;28;19920;-80
2023/04/22 02:47:22;;;;;;;;;;;;;;;10.37;100.00;99619.34;5061337;28;19928;-81
2023/04/22 02:49:48;;;;;;;;;;;;;;;10.42;100.00;99617.13;5061308;28;19921;-81
2023/04/22 02:52:13;;;;;;;;;;;;;;;10.43;100.00;99616.13;5062335;28;20033;-80
2023/04/22 02:54:39;;;;;;;;;;;;;;;10.37;100.00;99617.53;5061943;28;19928;-82
2023/04/22 02:57:04;;;;;;;;;;;;;;;10.34;100.00;99609.91;5061510;28;19921;-82
2023/04/22 02:59:30;;;;;;;;;;;;;;;10.24;100.00;99615.19;5054505;28;19920;-82
2023/04/22 03:01:55;;;;;;;;;;;;;;;10.19;100.00;99606.84;5060413;28;20286;-82
2023/04/22 03:04:53;;;;;;;;;;;;;;;10.24;100.00;99609.91;5047838;28;19932;-81
2023/04/22 03:07:19;;;;;;;;;;;;;;;10.27;100.00;99608.78;5063041;28;20003;-80
2023/04/22 03:09:44;;;;;;;;;;;;;;;10.27;100.00;99609.63;5043196;28;19921;-82
2023/04/22 03:12:10;;;;;;;;;;;;;;;10.14;100.00;99613.47;5060709;28;19921;-79
2023/04/22 03:14:35;;;;;;;;;;;;;;;9.89;100.00;99620.13;5062403;28;19928;-81
2023/04/22 03:17:01;;;;;;;;;;;;;;;9.83;100.00;99612.78;5061717;28;20761;-82
2023/04/22 03:19:26;;;;;;;;;;;;;;;9.79;100.00;99609.56;5057671;28;19921;-82
2023/04/22 03:21:51;;;;;;;;;;;;;;;9.78;100.00;99607.06;5038150;28;19969;-82
2023/04/22 03:24:17;;;;;;;;;;;;;;;9.70;100.00;99609.56;5060132;28;19933;-79
2023/04/22 03:26:47;;;;;;;;;;;;;;;9.57;100.00;99620.34;5053664;28;19974;-79
2023/04/22 03:29:12;;;;;;;;;;;;;;;9.43;100.00;99612.78;5042806;28;19920;-79
2023/04/22 03:31:38;;;;;;;;;;;;;;;9.45;100.00;99605.59;5062155;28;19965;-80
2023/04/22 03:34:03;;;;;;;;;;;;;;;9.38;100.00;99605.31;5063491;28;20015;-79
2023/04/22 03:36:30;;;;;;;;;;;;;;;9.40;100.00;99600.75;5062033;28;19920;-79
2023/04/22 03:38:55;;;;;;;;;;;;;;;9.36;100.00;99607.25;5056645;28;19932;-80
2023/04/22 03:41:25;;;;;;;;;;;;;;;9.47;100.00;99603.69;5060713;28;19993;-80
2023/04/22 03:43:51;;;;;;;;;;;;;;;9.50;100.00;99598.13;5041653;28;19920;-79
2023/04/22 03:46:16;;;;;;;;;;;;;;;9.54;100.00;99602.19;5057748;28;20257;-78
2023/04/22 03:48:58;;;;;;;;;;;;;;;9.55;100.00;99600.34;5040491;28;19920;-77
2023/04/22 03:51:29;;;;;;;;;;;;;;;9.65;100.00;99603.88;5043826;28;19916;-78
2023/04/22 03:53:57;;;;;;;;;;;;;;;9.66;100.00;99613.44;5056444;28;19925;-77
2023/04/22 03:56:25;;;;;;;;;;;;;;;9.68;100.00;99616.75;5043156;28;20254;-77
2023/04/22 03:58:53;;;;;;;;;;;;;;;9.54;100.00;99609.25;5061627;28;19986;-78
2023/04/22 04:01:19;;;;;;;;;;;;;;;9.57;100.00;99603.69;5054953;28;20362;-82
2023/04/22 04:03:49;;;;;;;;;;;;;;;9.42;100.00;99606.69;5038081;28;20349;-81
2023/04/22 04:06:15;;;;;;;;;;;;;;;9.27;100.00;99608.03;5059885;28;19928;-80
2023/04/22 04:08:41;;;;;;;;;;;;;;;9.31;100.00;99604.16;5044605;28;19929;-78
2023/04/22 04:11:07;;;;;;;;;;;;;;;9.30;100.00;99605.16;5059521;28;20005;-80
2023/04/22 04:13:33;;;;;;;;;;;;;;;9.32;100.00;99605.84;5042968;28;19925;-81
2023/04/22 04:16:13;;;;;;;;;;;;;;;9.33;100.00;99612.78;5042093;28;19991;-81
2023/04/22 04:18:41;;;;;;;;;;;;;;;9.36;100.00;99607.25;5041322;28;20011;-79
2023/04/22 04:21:06;;;;;;;;;;;;;;;9.32;100.00;99621.63;5058854;28;20353;-81
2023/04/22 04:23:36;;;;;;;;;;;;;;;9.30;100.00;99623.59;5058744;28;20444;-81
2023/04/22 04:26:04;;;;;;;;;;;;;;;9.32;100.00;99619.00;5042787;28;20019;-81
2023/04/22 04:28:34;;;;;;;;;;;;;;;9.36;100.00;99623.06;5044400;28;19960;-80
2023/04/22 04:31:03;;;;;;;;;;;;;;;9.34;100.00;99619.72;5043717;28;19920;-79
2023/04/22 04:33:30;;;;;;;;;;;;;;;9.20;100.00;99627.97;5059395;28;20311;-80
2023/04/22 04:35:57;;;;;;;;;;;;;;;9.12;100.00;99630.44;5054954;28;19925;-82
2023/04/22 04:38:27;;;;;;;;;;;;;;;9.09;100.00;99633.31;5038041;28;20374;-82
2023/04/22 04:40:53;;;;;;;;;;;;;;;9.11;100.00;99634.03;5061535;28;19948;-82
2023/04/22 04:43:24;;;;;;;;;;;;;;;9.16;100.00;99631.84;5040768;28;19996;-82
2023/04/22 04:45:56;;;;;;;;;;;;;;;9.16;100.00;99623.09;5058983;28;19917;-82
2023/04/22 04:48:34;;;;;;;;;;;;;;;9.19;100.00;99631.56;5060084;28;19924;-82
2023/04/22 04:51:05;;;;;;;;;;;;;;;9.14;100.00;99625.84;5051591;28;19939;-82
2023/04/22 04:53:33;;;;;;;;;;;;;;;9.14;100.00;99628.50;5059721;28;19927;-81
2023/04/22 04:55:58;;;;;;;;;;;;;;;9.15;100.00;99630.16;5055614;28;19921;-80
2023/04/22 04:58:25;;;;;;;;;;;;;;;9.14;100.00;99633.75;5043149;28;19924;-80
2023/04/22 05:01:05;;;;;;;;;;;;;;;9.18;100.00;99629.91;5042824;28;19999;-80
2023/04/22 05:03:31;;;;;;;;;;;;;;;9.19;100.00;99628.91;5056582;28;19921;-82
2023/04/22 05:05:57;;;;;;;;;;;;;;;9.27;100.00;99626.47;5060677;28;19916;-82
2023/04/22 05:08:23;;;;;;;;;;;;;;;9.33;100.00;99631.22;5029984;28;20051;-82
2023/04/22 05:10:51;;;;;;;;;;;;;;;9.25;100.00;99636.28;5045297;28;19921;-81
2023/04/22 05:13:17;;;;;;;;;;;;;;;9.31;100.00;99635.75;5050352;28;20269;-82
2023/04/22 05:15:45;;;;;;;;;;;;;;;9.34;100.00;99635.53;5060941;28;20264;-81
2023/04/22 05:18:10;;;;;;;;;;;;;;;9.36;100.00;99630.97;5059360;28;19943;-81
2023/04/22 05:20:36;;;;;;;;;;;;;;;9.42;100.00;99638.31;5064822;28;19979;-81
2023/04/22 05:23:02;;;;;;;;;;;;;;;9.46;100.00;99644.16;5053105;28;20003;-81
2023/04/22 05:25:27;;;;;;;;;;;;;;;9.39;100.00;99643.84;5071604;28;19917;-82
2023/04/22 05:28:00;;;;;;;;;;;;;;;9.35;100.00;99644.25;5070120;28;19920;-80
2023/04/22 05:30:32;;;;;;;;;;;;;;;9.34;100.00;99646.06;5061949;28;19917;-80
2023/04/22 05:32:57;;;;;;;;;;;;;;;9.33;100.00;99648.81;5062848;28;20468;-80
2023/04/22 05:35:23;;;;;;;;;;;;;;;9.33;100.00;99660.19;5061697;28;20010;-80
2023/04/22 05:37:50;;;;;;;;;;;;;;;9.29;100.00;99663.22;5061994;28;20007;-80
2023/04/22 05:40:15;;;;;;;;;;;;;;;9.33;100.00;99665.44;5054155;28;20031;-80
2023/04/22 05:42:41;;;;;;;;;;;;;;;9.36;100.00;99664.34;5065245;28;19925;-80
2023/04/22 05:45:07;;;;;;;;;;;;;;;9.43;100.00;99666.31;5058398;28;19970;-80
2023/04/22 05:47:32;;;;;;;;;;;;;;;9.44;100.00;99662.72;5062604;28;19920;-79
2023/04/22 05:49:58;;;;;;;;;;;;;;;9.44;100.00;99672.41;5047220;28;19920;-79
2023/04/22 05:52:35;;;;;;;;;;;;;;;9.42;100.00;99659.38;5053363;28;19975;-78
2023/04/22 05:55:06;;;;;;;;;;;;;;;9.51;100.00;99668.28;5059802;28;20000;-78
2023/04/22 05:57:31;;;;;;;;;;;;;;;9.57;100.00;99672.19;5049929;28;20452;-80
2023/04/22 05:59:59;;;;;;;;;;;;;;;9.60;100.00;99671.94;5042945;28;19968;-80
2023/04/22 06:02:24;;;;;;;;;;;;;;;9.63;100.00;99674.28;5037219;28;19999;-80
2023/04/22 06:04:50;;;;;;;;;;;;;;;9.51;100.00;99670.91;5043769;28;19921;-78
2023/04/22 06:07:15;;;;;;;;;;;;;;;9.50;100.00;99677.16;5042058;28;20428;-81
2023/04/22 06:09:41;;;;;;;;;;;;;;;9.51;100.00;99675.34;5062323;28;19943;-79
2023/04/22 06:12:06;;;;;;;;;;;;;;;9.53;100.00;99681.34;5045482;28;19986;-79
2023/04/22 06:14:33;;;;;;;;;;;;;;;9.52;100.00;99684.94;5060018;28;19921;-82
2023/04/22 06:16:58;;;;;;;;;;;;;;;9.57;100.00;99680.09;5062786;28;19927;-82
2023/04/22 06:19:23;;;;;;;;;;;;;;;9.44;100.00;99683.78;5061468;28;19947;-81
2023/04/22 06:21:49;;;;;;;;;;;;;;;9.41;100.00;99694.59;5064959;28;19927;-81
2023/04/22 06:24:15;;;;;;;;;;;;;;;9.52;100.00;99703.38;5044148;28;19924;-81
2023/04/22 06:26:41;;;;;;;;;;;;;;;9.74;100.00;99700.53;5064284;28;20396;-81
2023/04/22 06:29:06;;;;;;;;;;;;;;;9.81;100.00;99701.66;5063336;28;19920;-81
2023/04/22 06:31:33;;;;;;;;;;;;;;;9.89;100.00;99709.75;5059947;28;19995;-80
2023/04/22 06:33:58;;;;;;;;;;;;;;;9.73;100.00;99709.41;5062733;28;20032;-80
2023/04/22 06:36:25;;;;;;;;;;;;;;;9.91;100.00;99707.78;5052060;28;19927;-88
2023/04/22 06:38:55;;;;;;;;;;;;;;;10.03;100.00;99712.00;5054710;28;19927;-81
2023/04/22 06:41:39;;;;;;;;;;;;;;;10.04;100.00;99708.38;5061730;28;19928;-82
2023/04/22 06:44:27;;;;;;;;;;;;;;;10.21;100.00;99712.19;5061139;28;19942;-82
2023/04/22 06:47:19;;;;;;;;;;;;;;;10.33;100.00;99703.19;5058136;28;19964;-82
2023/04/22 06:49:52;;;;;;;;;;;;;;;10.41;100.00;99700.72;5057334;28;20215;-80
2023/04/22 06:52:28;;;;;;;;;;;;;;;10.46;100.00;99703.75;5041867;28;20395;-83
2023/04/22 06:54:56;;;;;;;;;;;;;;;10.54;100.00;99692.53;5050955;28;19931;-81
2023/04/22 06:57:21;;;;;;;;;;;;;;;10.66;100.00;99696.69;5045869;28;19921;-80
2023/04/22 06:59:47;;;;;;;;;;;;;;;10.74;100.00;99702.06;5056214;28;19927;-80
2023/04/22 07:02:12;;;;;;;;;;;;;;;10.78;100.00;99698.19;5077694;28;19924;-84
2023/04/22 07:04:38;;;;;;;;;;;;;;;10.83;100.00;99700.41;5080383;28;19947;-82
2023/04/22 07:07:04;;;;;;;;;;;;;;;10.88;100.00;99699.03;5074698;28;19928;-82
2023/04/22 07:09:30;;;;;;;;;;;;;;;10.96;100.00;99685.94;5058760;28;19928;-85
2023/04/22 07:11:56;;;;;;;;;;;;;;;11.02;100.00;99690.63;5070715;28;19988;-88
2023/04/22 07:14:24;;;;;;;;;;;;;;;11.08;100.00;99682.16;5063263;28;19928;-86
2023/04/22 07:16:49;;;;;;;;;;;;;;;11.17;100.00;99682.28;5056438;28;20055;-86
2023/04/22 07:19:15;;;;;;;;;;;;;;;11.26;100.00;99684.03;5057801;28;20599;-85
2023/04/22 07:21:40;;;;;;;;;;;;;;;11.33;100.00;99682.50;5062477;28;19924;-85
2023/04/22 07:24:05;;;;;;;;;;;;;;;11.40;100.00;99689.72;5062073;28;20295;-85
2023/04/22 07:26:33;;;;;;;;;;;;;;;11.47;100.00;99679.41;5059283;28;20300;-86
2023/04/22 07:28:58;;;;;;;;;;;;;;;11.54;100.00;99677.84;5058003;28;20042;-85
2023/04/22 07:31:23;;;;;;;;;;;;;;;11.58;100.00;99681.84;5062365;28;20400;-86
2023/04/22 07:33:49;;;;;;;;;;;;;;;11.64;100.00;99673.34;5060617;28;19921;-84
2023/04/22 07:36:14;;;;;;;;;;;;;;;11.69;100.00;99678.19;5052032;28;19920;-81
2023/04/22 07:38:39;;;;;;;;;;;;;;;11.77;100.00;99681.78;5059187;28;19924;-87
2023/04/22 07:41:05;;;;;;;;;;;;;;;11.75;100.00;99673.16;5054528;28;19925;-82
2023/04/22 07:43:30;;;;;;;;;;;;;;;11.80;100.00;99667.44;5073043;28;19925;-83
2023/04/22 07:45:56;;;;;;;;;;;;;;;11.84;100.00;99674.09;5053983;28;20346;-84
2023/04/22 07:48:21;;;;;;;;;;;;;;;11.86;100.00;99669.47;5057512;28;19943;-82
2023/04/22 07:50:47;;;;;;;;;;;;;;;11.71;100.00;99671.78;5053447;28;19920;-82
2023/04/22 07:53:14;;;;;;;;;;;;;;;11.73;100.00;99674.25;5062412;28;20691;-82
2023/04/22 07:55:40;;;;;;;;;;;;;;;11.83;100.00;99675.91;5062653;28;19953;-81
2023/04/22 07:58:05;;;;;;;;;;;;;;;11.97;100.00;99671.09;5057923;28;20023;-82
2023/04/22 08:00:32;;;;;;;;;;;;;;;12.08;100.00;99671.72;5065561;28;19920;-83
2023/04/22 08:02:57;;;;;;;;;;;;;;;12.13;100.00;99676.56;5061784;28;20299;-83
2023/04/22 08:05:23;;;;;;;;;;;;;;;12.19;100.00;99668.03;5063505;28;19920;-88
2023/04/22 08:07:48;;;;;;;;;;;;;;;12.36;100.00;99669.84;5063390;28;19986;-85
2023/04/22 08:10:13;;;;;;;;;;;;;;;12.47;100.00;99672.28;5059883;28;20423;-83
2023/04/22 08:12:39;;;;;;;;;;;;;;;12.70;100.00;99665.50;5060416;28;20016;-87
2023/04/22 08:15:04;;;;;;;;;;;;;;;12.89;100.00;99675.09;5062608;28;20233;-88
2023/04/22 08:17:30;;;;;;;;;;;;;;;13.04;100.00;99672.69;5060930;28;19921;-88
2023/04/22 08:19:58;;;;;;;;;;;;;;;13.20;100.00;99672.00;5063656;28;20307;-89
2023/04/22 08:22:24;;;;;;;;;;;;;;;13.34;100.00;99674.06;5055562;28;19952;-89
2023/04/22 08:24:49;;;;;;;;;;;;;;;13.42;100.00;99667.00;5053186;28;19979;-85
2023/04/22 08:27:15;;;;;;;;;;;;;;;13.56;100.00;99667.38;5058328;28;19959;-87
2023/04/22 08:29:43;;;;;;;;;;;;;;;13.66;100.00;99668.94;5057458;28;19924;-83
2023/04/22 08:32:09;;;;;;;;;;;;;;;13.58;100.00;99668.06;5057939;28;19932;-83
2023/04/22 08:34:35;;;;;;;;;;;;;;;13.65;100.00;99666.44;5056646;28;19921;-79
2023/04/22 08:37:01;;;;;;;;;;;;;;;13.72;100.00;99667.47;5058747;28;20289;-78
2023/04/22 08:39:26;;;;;;;;;;;;;;;13.79;100.00;99663.16;5057260;28;20321;-80
2023/04/22 08:41:52;;;;;;;;;;;;;;;13.96;100.00;99667.53;5074591;28;20065;-83
2023/04/22 08:44:18;;;;;;;;;;;;;;;14.06;100.00;99670.91;5067864;28;20003;-80
2023/04/22 08:46:47;;;;;;;;;;;;;;;14.12;100.00;99674.72;5053011;28;19990;-79
2023/04/22 08:49:15;;;;;;;;;;;;;;;14.20;100.00;99677.38;5055959;28;19929;-79
2023/04/22 08:51:41;;;;;;;;;;;;;;;14.30;100.00;99672.78;5046715;28;19939;-78
2023/04/22 08:54:07;;;;;;;;;;;;;;;14.36;100.00;99677.44;5054985;28;20369;-78
2023/04/22 08:56:33;;;;;;;;;;;;;;;14.28;100.00;99683.53;5061832;28;20011;-79
2023/04/22 08:58:59;;;;;;;;;;;;;;;14.37;100.00;99683.56;5056463;28;20090;-78
2023/04/22 09:01:26;;;;;;;;;;;;;;;14.32;100.00;99687.53;5059291;28;20390;-79
2023/04/22 09:03:52;;;;;;;;;;;;;;;14.45;100.00;99679.13;5061860;28;20007;-79
2023/04/22 09:06:18;;;;;;;;;;;;;;;14.62;100.00;99678.13;5054032;28;20610;-77
2023/04/22 09:08:45;;;;;;;;;;;;;;;14.73;100.00;99676.97;5060812;28;20352;-79
2023/04/22 09:11:10;;;;;;;;;;;;;;;14.81;100.00;99666.34;5058609;28;19983;-78
2023/04/22 09:13:36;;;;;;;;;;;;;;;14.90;100.00;99661.88;5060287;28;19928;-85
2023/04/22 09:16:02;;;;;;;;;;;;;;;14.96;100.00;99671.81;5048077;28;20233;-82
2023/04/22 09:18:27;;;;;;;;;;;;;;;15.00;100.00;99660.69;5055720;28;20008;-78
2023/04/22 09:20:53;;;;;;;;;;;;;;;15.08;100.00;99657.16;5059703;28;19928;-80
2023/04/22 09:23:19;;;;;;;;;;;;;;;14.87;100.00;99668.34;5052676;28;19928;-81
2023/04/22 09:25:45;;;;;;;;;;;;;;;14.75;100.00;99664.34;5056496;28;19920;-79
2023/04/22 09:28:11;;;;;;;;;;;;;;;14.86;100.00;99664.00;5057561;28;19928;-81
2023/04/22 09:30:37;;;;;;;;;;;;;;;14.99;100.00;99648.38;5055346;28;20009;-83
2023/04/22 09:33:03;;;;;;;;;;;;;;;15.11;100.00;99646.22;5059947;28;20015;-81
2023/04/22 09:35:30;;;;;;;;;;;;;;;15.19;100.00;99651.53;5060749;28;19928;-83
2023/04/22 09:37:55;;;;;;;;;;;;;;;15.13;100.00;99650.38;5060923;28;19944;-94
2023/04/22 09:40:21;;;;;;;;;;;;;;;15.10;100.00;99650.69;5063540;28;19921;-86
2023/04/22 09:42:50;;;;;;;;;;;;;;;15.13;100.00;99654.84;5069431;28;19991;-89
2023/04/22 09:45:35;;;;;;;;;;;;;;;15.20;100.00;99650.50;5071820;28;19925;-88
2023/04/22 09:48:16;;;;;;;;;;;;;;;15.40;100.00;99635.81;5056737;28;19928;-88
2023/04/22 09:50:46;;;;;;;;;;;;;;;15.50;100.00;99640.94;5064391;28;19932;-87
2023/04/22 09:53:13;;;;;;;;;;;;;;;15.63;100.00;99641.25;5065606;28;19955;-89
2023/04/22 09:55:40;;;;;;;;;;;;;;;15.72;100.00;99634.91;5063358;28;19925;-88
2023/04/22 09:58:08;;;;;;;;;;;;;;;15.84;100.00;99644.16;5063923;28;19924;-87
2023/04/22 10:00:34;;;;;;;;;;;;;;;15.96;100.00;99637.41;5062433;28;19931;-89
2023/04/22 10:03:00;;;;;;;;;;;;;;;16.02;100.00;99640.41;5064942;28;20010;-89
2023/04/22 10:05:25;;;;;;;;;;;;;;;16.12;100.00;99635.69;5065970;28;19924;-88
2023/04/22 10:07:51;;;;;;;;;;;;;;;16.12;100.00;99635.69;5064614;28;20325;-88
2023/04/22 10:10:17;;;;;;;;;;;;;;;16.22;100.00;99636.25;5063556;28;19927;-87
2023/04/22 10:12:43;;;;;;;;;;;;;;;16.27;100.00;99628.56;5067247;28;19928;-88
2023/04/22 10:15:08;;;;;;;;;;;;;;;16.32;100.00;99626.19;5063248;28;19921;-87
2023/04/22 10:17:37;;;;;;;;;;;;;;;16.40;100.00;99623.47;5064172;28;20349;-87
2023/04/22 10:20:04;;;;;;;;;;;;;;;16.49;100.00;99618.94;5065754;28;19920;-88
2023/04/22 10:22:31;;;;;;;;;;;;;;;16.54;100.00;99620.06;5063165;28;19924;-87
2023/04/22 10:24:57;;;;;;;;;;;;;;;16.64;100.00;99625.16;5060870;28;19921;-89
2023/04/22 10:27:23;;;;;;;;;;;;;;;16.73;100.00;99616.06;5064632;28;19921;-86
2023/04/22 10:29:48;;;;;;;;;;;;;;;16.77;100.00;99626.22;5060914;28;19958;-88
2023/04/22 10:32:17;;;;;;;;;;;;;;;16.84;100.00;99612.16;5068704;28;19943;-86
2023/04/22 10:34:45;;;;;;;;;;;;;;;16.87;100.00;99614.44;5061896;28;19921;-88
2023/04/22 10:37:12;;;;;;;;;;;;;;;16.95;100.00;99606.38;5065117;28;19920;-89
2023/04/22 10:39:38;;;;;;;;;;;;;;;17.06;100.00;99608.59;5065153;28;20379;-88
2023/04/22 10:42:08;;;;;;;;;;;;;;;17.16;100.00;99598.47;5062777;28;20011;-90
2023/04/22 10:44:50;;;;;;;;;;;;;;;17.24;100.00;99593.06;5058608;28;19990;-89
2023/04/22 10:47:26;;;;;;;;;;;;;;;17.34;100.00;99590.94;5062582;28;19920;-89
2023/04/22 10:50:07;;;;;;;;;;;;;;;17.43;100.00;99589.00;5063625;28;20280;-86
2023/04/22 10:52:32;;;;;;;;;;;;;;;17.47;100.00;99591.09;5069508;28;19930;-89
2023/04/22 10:54:58;;;;;;;;;;;;;;;17.53;99.66;99590.38;5086482;28;19931;-87
2023/04/22 10:57:30;;;;;;;;;;;;;;;17.61;98.00;99588.66;5074927;28;19921;-87
2023/04/22 10:59:57;;;;;;;;;;;;;;;17.65;97.77;99581.91;5071927;28;20395;-88
2023/04/22 11:02:22;;;;;;;;;;;;;;;17.68;96.24;99584.19;5060224;28;20297;-87
2023/04/22 11:04:48;;;;;;;;;;;;;;;17.66;96.19;99583.56;5077417;28;20373;-88
2023/04/22 11:07:49;;;;;;;;;;;;;;;17.66;96.47;99572.91;5065919;28;19979;-87
2023/04/22 11:10:09;;;;;;;;;;;;;;;17.56;96.64;99579.31;5063519;28;19921;-88
2023/04/22 11:12:37;;;;;;;;;;;;;;;17.61;97.38;99580.63;5065714;28;19927;-89
2023/04/22 11:15:12;;;;;;;;;;;;;;;17.55;96.60;99571.50;5063573;28;19995;-88
2023/04/22 11:17:38;;;;;;;;;;;;;;;17.70;98.09;99566.16;5063258;28;19924;-87
2023/04/22 11:20:05;;;;;;;;;;;;;;;17.82;96.63;99567.31;5065191;28;20376;-87
2023/04/22 11:22:38;;;;;;;;;;;;;;;17.94;96.87;99555.97;5062758;28;19920;-87
2023/04/22 11:25:04;;;;;;;;;;;;;;;18.07;95.51;99555.28;5074541;28;19928;-88
2023/04/22 11:27:30;;;;;;;;;;;;;;;18.13;96.69;99554.50;5084873;28;19960;-86
2023/04/22 11:30:06;;;;;;;;;;;;;;;18.20;94.68;99549.22;5085066;28;19921;-87
2023/04/22 11:32:32;;;;;;;;;;;;;;;18.24;93.73;99548.66;5072422;28;19920;-87
2023/04/22 11:35:02;;;;;;;;;;;;;;;18.28;92.49;99549.06;5073951;28;19920;-88
2023/04/22 11:37:28;;;;;;;;;;;;;;;18.25;93.05;99547.63;5069933;28;19921;-87
2023/04/22 11:39:58;;;;;;;;;;;;;;;18.24;92.86;99545.97;5069191;28;19920;-88
2023/04/22 11:42:23;;;;;;;;;;;;;;;18.22;92.06;99542.66;5060553;28;19964;-88
2023/04/22 11:44:49;;;;;;;;;;;;;;;18.21;91.09;99543.69;5082729;28;19923;-88
2023/04/22 11:47:14;;;;;;;;;;;;;;;18.18;90.79;99543.25;5081212;28;19994;-85
2023/04/22 11:49:40;;;;;;;;;;;;;;;18.24;92.58;99540.63;5062207;28;19932;-89
2023/04/22 11:52:05;;;;;;;;;;;;;;;18.36;91.86;99541.78;5066732;28;19924;-91
2023/04/22 11:54:32;;;;;;;;;;;;;;;18.33;90.95;99534.13;5056857;28;19935;-91
2023/04/22 11:57:01;;;;;;;;;;;;;;;18.50;90.86;99533.84;5078295;22;19909;-88
2023/04/22 11:59:27;;;;;;;;;;;;;;;18.70;90.43;99524.16;5060395;28;19990;-89
2023/04/22 12:01:52;;;;;;;;;;;;;;;18.87;88.19;99525.50;5060064;28;19979;-87
2023/04/22 12:04:20;;;;;;;;;;;;;;;18.93;88.08;99515.88;5061555;28;20334;-88
2023/04/22 12:06:45;;;;;;;;;;;;;;;19.14;87.87;99516.56;5043914;28;20000;-89
2023/04/22 12:09:11;;;;;;;;;;;;;;;19.39;86.55;99518.75;5062221;28;19975;-86
2023/04/22 12:11:37;;;;;;;;;;;;;;;19.34;83.19;99515.84;5061250;28;19924;-87
2023/04/22 12:14:06;;;;;;;;;;;;;;;19.35;83.37;99506.81;5057205;28;20381;-88
2023/04/22 12:16:41;;;;;;;;;;;;;;;19.42;82.92;99507.66;5063496;28;19921;-88
2023/04/22 12:19:06;;;;;;;;;;;;;;;19.48;81.38;99506.88;5056843;28;19974;-88
2023/04/22 12:21:32;;;;;;;;;;;;;;;19.51;81.55;99512.66;5066178;28;19921;-87
2023/04/22 12:23:58;;;;;;;;;;;;;;;19.59;81.56;99509.81;5075253;28;19928;-87
2023/04/22 12:26:25;;;;;;;;;;;;;;;19.57;78.15;99506.50;5080676;28;19991;-87
2023/04/22 12:28:51;;;;;;;;;;;;;;;19.70;80.43;99500.34;5070906;28;19925;-88
2023/04/22 12:31:17;;;;;;;;;;;;;;;19.76;78.01;99499.53;5087141;28;19924;-86
2023/04/22 12:33:43;;;;;;;;;;;;;;;19.87;78.15;99500.78;5077173;28;20257;-86
2023/04/22 12:36:09;;;;;;;;;;;;;;;19.77;78.30;99495.00;5072115;28;20011;-89
2023/04/22 12:38:34;;;;;;;;;;;;;;;19.70;77.91;99495.00;5056765;28;20177;-89
2023/04/22 12:41:00;;;;;;;;;;;;;;;19.69;79.08;99496.03;5067997;28;19921;-89